Warren, Arkansas
Current Conditions -  °F | °C
As of 10:53 AM on Friday 31 Oct 2014 (Local Time) from KLLQ Reporting Station
Few Clouds Few Clouds  
Wind Chill: 61°   Ceiling: Unl
Heat Index: 61°   Visibility: 10mi
Dew Point: 46°   Wind: 7mph
Humidity: 58%   Direction: 30°NNE
Pressure: 30.16"   Gusts: 17mph
Location:  33.61°N, 92.06°W
Report Text: KLLQ 311553Z AUTO 03006G15KT 10SM FEW030 16/08 A3016 RMK AO2 SLP210 T01610078
Loading
Personal Weather Stations






























Interactive Weather Map
Tropical Storm Tracking
New forecast layout! Learn more

10-Day Weather Forecast

Advertisements
Track Severe Weather on mobile